Time;durP1;ratioP1;P1;durP2;ratioP2;P2;SDS_P1;SDS_P2;PMS_P1;PMS_P2;Temp;Humidity;BMP_temperature;BMP_pressure;BME280_temperature;BME280_humidity;BME280_pressure;Samples;Min_cycle;Max_cycle;Signal;HPM_P1;HPM_P2
2023/10/23 00:01:41;;;;;;;5.03;3.38;;;7.80;99.90;;;;;;5097792;28;20100;-63
2023/10/23 00:04:07;;;;;;;5.82;3.50;;;7.80;99.90;;;;;;5135787;27;20046;-63
2023/10/23 00:06:33;;;;;;;4.95;2.97;;;7.80;99.90;;;;;;5102211;28;20469;-63
2023/10/23 00:08:59;;;;;;;5.45;3.35;;;7.80;99.90;;;;;;5102999;28;20127;-63
2023/10/23 00:11:30;;;;;;;7.80;3.35;;;7.80;99.90;;;;;;5101314;28;20123;-63
2023/10/23 00:13:56;;;;;;;3.05;2.75;;;7.80;99.90;;;;;;5135041;27;20050;-63
2023/10/23 00:16:22;;;;;;;4.18;3.20;;;7.80;99.90;;;;;;5134301;27;20036;-63
2023/10/23 00:18:48;;;;;;;4.03;3.53;;;7.80;99.90;;;;;;5097963;27;20497;-63
2023/10/23 00:21:15;;;;;;;5.82;3.30;;;7.80;99.90;;;;;;5100036;28;20047;-63
2023/10/23 00:23:40;;;;;;;5.72;3.22;;;7.70;99.90;;;;;;5099530;28;20047;-63
2023/10/23 00:26:06;;;;;;;4.35;3.10;;;7.70;99.90;;;;;;5103673;28;20046;-63
2023/10/23 00:28:33;;;;;;;18.83;3.33;;;7.70;99.90;;;;;;5102718;27;20114;-63
2023/10/23 00:30:59;;;;;;;3.30;2.45;;;7.70;99.90;;;;;;5104832;28;20444;-63
2023/10/23 00:33:25;;;;;;;4.18;2.95;;;7.60;99.90;;;;;;5099346;27;20044;-63
2023/10/23 00:35:51;;;;;;;5.25;3.47;;;7.60;99.90;;;;;;5102551;28;20493;-63
2023/10/23 00:38:17;;;;;;;5.75;3.22;;;7.60;99.90;;;;;;5103885;28;20035;-63
2023/10/23 00:40:42;;;;;;;3.42;1.90;;;7.60;99.90;;;;;;5134791;27;20039;-64
2023/10/23 00:43:21;;;;;;;6.13;2.25;;;7.60;99.90;;;;;;5101544;28;20040;-64
2023/10/23 00:45:53;;;;;;;3.40;3.10;;;7.50;99.90;;;;;;5104754;28;20032;-63
2023/10/23 00:48:21;;;;;;;4.90;2.63;;;7.50;99.90;;;;;;5102384;28;20447;-63
2023/10/23 00:50:49;;;;;;;5.30;3.28;;;7.40;99.90;;;;;;5133354;27;20509;-63
2023/10/23 00:53:17;;;;;;;3.55;2.47;;;7.40;99.90;;;;;;5101649;28;20454;-63
2023/10/23 00:55:43;;;;;;;2.72;2.53;;;7.40;99.90;;;;;;5101954;28;20044;-63
2023/10/23 00:58:09;;;;;;;1.40;1.27;;;7.40;99.90;;;;;;5102406;28;20078;-63
2023/10/23 01:00:35;;;;;;;1.48;0.80;;;7.30;99.90;;;;;;5102316;28;20039;-63
2023/10/23 01:03:01;;;;;;;2.67;1.38;;;7.30;99.90;;;;;;5101852;27;20044;-63
2023/10/23 01:05:27;;;;;;;1.45;1.23;;;7.20;99.90;;;;;;5101347;28;20078;-63
2023/10/23 01:07:54;;;;;;;5.25;1.88;;;7.20;99.90;;;;;;5108188;28;20036;-63
2023/10/23 01:10:20;;;;;;;4.97;1.15;;;7.20;99.90;;;;;;5100186;28;20561;-63
2023/10/23 01:12:45;;;;;;;3.85;2.75;;;7.10;99.90;;;;;;5136573;27;20177;-63
2023/10/23 01:15:11;;;;;;;4.50;2.30;;;7.10;99.90;;;;;;5099348;28;20043;-63
2023/10/23 01:17:37;;;;;;;3.00;2.13;;;7.20;99.90;;;;;;5099861;28;20039;-63
2023/10/23 01:20:03;;;;;;;6.43;2.15;;;7.20;99.90;;;;;;5099324;28;20081;-64
2023/10/23 01:22:29;;;;;;;2.80;2.60;;;7.20;99.90;;;;;;5099277;28;20048;-63
2023/10/23 01:24:55;;;;;;;2.67;2.47;;;7.20;99.90;;;;;;5103641;28;20039;-63
2023/10/23 01:27:21;;;;;;;5.63;1.92;;;7.10;99.90;;;;;;5105848;28;20035;-63
2023/10/23 01:29:47;;;;;;;5.65;2.40;;;7.10;99.90;;;;;;5095403;28;20047;-63
2023/10/23 01:32:12;;;;;;;3.80;2.50;;;7.10;99.90;;;;;;5099411;28;20040;-64
2023/10/23 01:34:38;;;;;;;2.78;2.30;;;7.10;99.90;;;;;;5102221;28;20042;-63
2023/10/23 01:37:04;;;;;;;2.58;1.92;;;7.10;99.90;;;;;;5098424;28;20122;-63
2023/10/23 01:39:29;;;;;;;2.22;1.20;;;7.10;99.90;;;;;;5098607;28;20652;-63
2023/10/23 01:41:55;;;;;;;1.70;1.60;;;7.00;99.90;;;;;;5104271;28;20039;-63
2023/10/23 01:44:20;;;;;;;1.80;1.52;;;7.00;99.90;;;;;;5096968;28;20043;-63
2023/10/23 01:46:46;;;;;;;2.78;2.05;;;7.00;99.90;;;;;;5133887;27;20040;-63
2023/10/23 01:49:12;;;;;;;2.40;2.20;;;6.90;99.90;;;;;;5104513;28;20039;-63
2023/10/23 01:51:37;;;;;;;2.22;1.60;;;6.90;99.90;;;;;;5102425;28;20096;-63
2023/10/23 01:54:03;;;;;;;4.07;1.23;;;7.00;99.90;;;;;;5097505;28;20062;-64
2023/10/23 01:56:28;;;;;;;3.10;1.33;;;6.80;99.90;;;;;;5101401;28;20043;-64
2023/10/23 01:58:54;;;;;;;1.13;1.00;;;6.80;99.90;;;;;;5098232;28;20043;-64
2023/10/23 02:01:22;;;;;;;1.95;0.80;;;6.70;99.90;;;;;;5099196;28;20051;-63
2023/10/23 02:03:48;;;;;;;1.48;1.00;;;6.70;99.90;;;;;;5100974;28;20043;-63
2023/10/23 02:06:14;;;;;;;1.65;1.45;;;6.60;99.90;;;;;;5099383;28;20047;-64
2023/10/23 02:08:40;;;;;;;4.10;1.50;;;6.60;99.90;;;;;;5097307;28;20034;-63
2023/10/23 02:11:07;;;;;;;1.48;1.38;;;6.50;99.90;;;;;;5103253;28;20469;-64
2023/10/23 02:13:33;;;;;;;1.73;1.45;;;6.50;99.90;;;;;;5099772;28;20575;-63
2023/10/23 02:15:58;;;;;;;2.20;1.50;;;6.50;99.90;;;;;;5135507;27;20071;-64
2023/10/23 02:18:24;;;;;;;3.28;1.55;;;6.50;99.90;;;;;;5103140;27;20036;-64
2023/10/23 02:20:50;;;;;;;3.72;2.65;;;6.50;99.90;;;;;;5105432;28;20043;-64
2023/10/23 02:23:16;;;;;;;4.22;2.20;;;6.50;99.90;;;;;;5101990;27;20047;-64
2023/10/23 02:25:42;;;;;;;1.85;1.75;;;6.50;99.90;;;;;;5103610;27;20036;-63
2023/10/23 02:28:08;;;;;;;2.10;1.90;;;6.50;99.90;;;;;;5104074;28;20051;-64
2023/10/23 02:30:36;;;;;;;2.67;2.47;;;6.50;99.90;;;;;;5104997;27;20075;-64
2023/10/23 02:33:02;;;;;;;2.88;2.58;;;6.50;99.90;;;;;;5104763;27;20036;-64
2023/10/23 02:35:27;;;;;;;4.25;2.95;;;6.50;99.90;;;;;;5139738;27;20039;-63
2023/10/23 02:37:53;;;;;;;3.10;2.75;;;6.50;99.90;;;;;;5102660;27;20032;-64
2023/10/23 02:40:18;;;;;;;3.78;3.30;;;6.60;99.90;;;;;;5108989;28;20036;-64
2023/10/23 02:42:44;;;;;;;5.15;2.75;;;6.60;99.90;;;;;;5104030;27;20603;-64
2023/10/23 02:45:10;;;;;;;2.80;2.60;;;6.60;99.90;;;;;;5136498;27;20116;-64
2023/10/23 02:47:37;;;;;;;2.95;2.72;;;6.60;99.90;;;;;;5135722;27;20058;-63
2023/10/23 02:50:03;;;;;;;2.92;2.55;;;6.50;99.90;;;;;;5117811;27;21318;-63
2023/10/23 02:52:29;;;;;;;5.28;2.20;;;6.50;99.90;;;;;;5106266;27;20038;-64
2023/10/23 02:54:54;;;;;;;1.70;1.05;;;6.60;99.90;;;;;;5104843;27;20096;-64
2023/10/23 02:57:20;;;;;;;1.70;1.60;;;6.50;99.90;;;;;;5105710;27;20062;-64
2023/10/23 02:59:48;;;;;;;3.00;1.52;;;6.40;99.90;;;;;;5104599;27;20042;-63
2023/10/23 03:02:15;;;;;;;1.98;1.13;;;6.50;99.90;;;;;;5133776;27;20036;-63
2023/10/23 03:04:41;;;;;;;2.10;1.90;;;6.40;99.90;;;;;;5103981;27;20113;-64
2023/10/23 03:07:07;;;;;;;2.38;2.00;;;6.40;99.90;;;;;;5102081;27;20035;-64
2023/10/23 03:09:33;;;;;;;1.58;1.48;;;6.40;99.90;;;;;;5102454;27;20481;-64
2023/10/23 03:11:58;;;;;;;1.73;1.63;;;6.40;99.90;;;;;;5099888;28;20043;-64
2023/10/23 03:14:24;;;;;;;2.50;1.90;;;6.40;99.90;;;;;;5105096;27;20043;-64
2023/10/23 03:16:49;;;;;;;2.40;2.20;;;6.40;99.90;;;;;;5106695;27;20085;-64
2023/10/23 03:19:15;;;;;;;5.18;1.58;;;6.40;99.90;;;;;;5103567;27;20061;-64
2023/10/23 03:21:41;;;;;;;3.22;2.47;;;6.40;99.90;;;;;;5105540;27;20119;-64
2023/10/23 03:24:07;;;;;;;3.75;1.90;;;6.40;99.90;;;;;;5097078;28;20039;-63
2023/10/23 03:26:32;;;;;;;1.42;1.13;;;6.40;99.90;;;;;;5103943;27;20039;-64
2023/10/23 03:28:58;;;;;;;4.90;1.27;;;6.40;99.90;;;;;;5103955;28;20062;-64
2023/10/23 03:31:24;;;;;;;2.00;1.63;;;6.40;99.90;;;;;;5103358;27;20122;-64
2023/10/23 03:33:49;;;;;;;2.05;1.85;;;6.40;99.90;;;;;;5105103;27;20036;-64
2023/10/23 03:36:16;;;;;;;2.47;2.28;;;6.30;99.90;;;;;;5104324;27;20402;-64
2023/10/23 03:38:41;;;;;;;7.00;3.00;;;6.40;99.90;;;;;;5101531;28;20036;-64
2023/10/23 03:41:07;;;;;;;4.07;3.25;;;6.40;99.90;;;;;;5098552;28;20042;-64
2023/10/23 03:43:33;;;;;;;4.78;2.70;;;6.40;99.90;;;;;;5099047;27;20062;-64
2023/10/23 03:46:03;;;;;;;4.35;2.63;;;6.40;99.90;;;;;;5102559;28;20039;-64
2023/10/23 03:48:29;;;;;;;5.68;3.35;;;6.40;99.90;;;;;;5103047;28;20051;-64
2023/10/23 03:50:58;;;;;;;3.50;3.13;;;6.50;99.90;;;;;;5108089;27;20095;-63
2023/10/23 03:53:24;;;;;;;5.78;2.35;;;6.40;99.90;;;;;;5103907;27;20048;-64
2023/10/23 03:55:49;;;;;;;3.80;3.45;;;6.50;99.90;;;;;;5102653;28;20039;-64
2023/10/23 03:58:15;;;;;;;3.97;3.35;;;6.50;99.90;;;;;;5104945;28;20043;-64
2023/10/23 04:00:41;;;;;;;3.97;2.80;;;6.40;99.90;;;;;;5101174;27;20371;-64
2023/10/23 04:03:06;;;;;;;3.95;3.55;;;6.40;99.90;;;;;;5099888;27;20028;-64
2023/10/23 04:05:38;;;;;;;5.88;3.92;;;6.50;99.90;;;;;;5103572;27;20081;-64
2023/10/23 04:08:04;;;;;;;3.95;3.55;;;6.50;99.90;;;;;;5100202;28;20481;-64
2023/10/23 04:10:29;;;;;;;4.05;3.55;;;6.50;99.90;;;;;;5101161;27;20051;-64
2023/10/23 04:12:55;;;;;;;4.22;3.83;;;6.50;99.90;;;;;;5102326;27;20027;-64
2023/10/23 04:15:20;;;;;;;7.60;3.63;;;6.40;99.90;;;;;;5105453;27;20039;-64
2023/10/23 04:17:46;;;;;;;3.47;3.13;;;6.50;99.90;;;;;;5104595;28;20095;-64
2023/10/23 04:20:12;;;;;;;4.18;3.40;;;6.40;99.90;;;;;;5103945;27;20487;-64
2023/10/23 04:22:37;;;;;;;3.90;3.58;;;6.40;99.90;;;;;;5104625;27;20089;-64
2023/10/23 04:25:03;;;;;;;4.63;3.08;;;6.40;99.90;;;;;;5102825;27;20035;-64
2023/10/23 04:27:29;;;;;;;4.40;4.00;;;6.40;99.90;;;;;;5101267;28;20043;-64
2023/10/23 04:29:59;;;;;;;4.72;3.58;;;6.30;99.90;;;;;;5099441;27;20909;-64
2023/10/23 04:32:25;;;;;;;37.08;4.22;;;6.30;99.90;;;;;;5102507;28;20044;-64
2023/10/23 04:34:51;;;;;;;6.55;4.32;;;6.30;99.90;;;;;;5101686;27;20050;-64
2023/10/23 04:37:16;;;;;;;4.10;2.88;;;6.20;99.90;;;;;;5100794;28;20035;-64
2023/10/23 04:39:42;;;;;;;4.43;3.20;;;6.20;99.90;;;;;;5099516;28;20477;-63
2023/10/23 04:42:08;;;;;;;3.72;2.72;;;6.20;99.90;;;;;;5100689;28;20161;-64
2023/10/23 04:44:36;;;;;;;5.28;3.00;;;6.10;99.90;;;;;;5102217;27;20130;-64
2023/10/23 04:47:02;;;;;;;3.30;2.88;;;6.00;99.90;;;;;;5105930;27;20035;-63
2023/10/23 04:49:28;;;;;;;5.45;3.67;;;6.00;99.90;;;;;;5101857;27;20032;-64
2023/10/23 04:51:54;;;;;;;11.73;3.05;;;6.00;99.90;;;;;;5104069;27;20051;-64
2023/10/23 04:54:19;;;;;;;29.95;3.90;;;6.00;99.90;;;;;;5097135;28;20044;-64
2023/10/23 04:56:46;;;;;;;7.38;2.92;;;5.90;99.90;;;;;;5132116;27;20039;-64
2023/10/23 04:59:11;;;;;;;2.97;2.70;;;5.90;99.90;;;;;;5099038;28;20044;-64
2023/10/23 05:01:37;;;;;;;2.88;2.50;;;5.90;99.90;;;;;;5099574;27;20048;-64
2023/10/23 05:04:03;;;;;;;2.72;2.40;;;5.90;99.90;;;;;;5100707;28;20505;-64
2023/10/23 05:06:29;;;;;;;3.55;3.25;;;5.90;99.90;;;;;;5103582;27;20036;-64
2023/10/23 05:08:55;;;;;;;3.65;2.92;;;5.90;99.90;;;;;;5107416;28;20475;-64
2023/10/23 05:11:21;;;;;;;4.70;3.78;;;5.90;99.90;;;;;;5135748;27;20036;-64
2023/10/23 05:13:46;;;;;;;5.90;3.80;;;5.90;99.90;;;;;;5087806;28;20044;-64
2023/10/23 05:16:12;;;;;;;6.82;3.50;;;5.90;99.90;;;;;;5103563;28;20412;-64
2023/10/23 05:18:39;;;;;;;4.70;3.40;;;5.90;99.90;;;;;;5101330;27;20104;-64
2023/10/23 05:21:12;;;;;;;4.18;2.78;;;5.90;99.90;;;;;;5115240;27;20036;-64
2023/10/23 05:23:39;;;;;;;3.20;2.88;;;5.90;99.90;;;;;;5100790;28;20501;-64
2023/10/23 05:26:04;;;;;;;3.60;3.30;;;5.90;99.90;;;;;;5100739;28;20032;-64
2023/10/23 05:28:31;;;;;;;3.30;3.05;;;5.90;99.90;;;;;;5099045;28;20044;-64
2023/10/23 05:30:57;;;;;;;3.33;3.03;;;5.90;99.90;;;;;;5132628;27;20042;-64
2023/10/23 05:33:23;;;;;;;5.28;3.25;;;5.90;99.90;;;;;;5105569;28;20035;-64
2023/10/23 05:35:49;;;;;;;3.22;2.92;;;5.80;99.90;;;;;;5120070;27;20179;-64
2023/10/23 05:38:15;;;;;;;4.28;3.40;;;5.90;99.90;;;;;;5101521;28;20509;-64
2023/10/23 05:40:40;;;;;;;3.70;3.40;;;5.80;99.90;;;;;;5104103;28;20400;-63
2023/10/23 05:43:06;;;;;;;3.88;3.47;;;5.80;99.90;;;;;;5096598;28;20040;-65
2023/10/23 05:45:32;;;;;;;3.90;3.58;;;5.80;99.90;;;;;;5104375;28;20047;-64
2023/10/23 05:47:57;;;;;;;4.20;3.80;;;5.80;99.90;;;;;;5104033;28;20035;-63
2023/10/23 05:50:23;;;;;;;3.38;3.08;;;5.80;99.90;;;;;;5100355;27;20505;-64
2023/10/23 05:52:48;;;;;;;4.90;4.50;;;5.80;99.90;;;;;;5108047;27;20051;-64
2023/10/23 05:55:14;;;;;;;5.32;3.50;;;5.80;99.90;;;;;;5100498;27;20043;-64
2023/10/23 05:57:40;;;;;;;5.03;3.40;;;5.80;99.90;;;;;;5101078;27;20044;-64
2023/10/23 06:00:08;;;;;;;8.05;2.05;;;5.80;99.90;;;;;;5101807;28;20079;-64
2023/10/23 06:02:34;;;;;;;5.35;1.88;;;5.80;99.90;;;;;;5132535;27;20040;-64
2023/10/23 06:05:00;;;;;;;4.38;2.20;;;5.70;99.90;;;;;;5103073;28;20560;-64
2023/10/23 06:07:25;;;;;;;3.63;1.48;;;5.60;99.90;;;;;;5104690;28;20036;-64
2023/10/23 06:09:51;;;;;;;2.08;1.95;;;5.60;99.90;;;;;;5101302;28;20136;-64
2023/10/23 06:12:17;;;;;;;3.00;2.45;;;5.50;99.90;;;;;;5133715;27;20047;-64
2023/10/23 06:14:43;;;;;;;3.38;2.38;;;5.50;99.90;;;;;;5103763;27;20477;-63
2023/10/23 06:17:09;;;;;;;5.30;3.00;;;5.40;99.90;;;;;;5101112;27;20046;-64
2023/10/23 06:19:36;;;;;;;3.95;3.00;;;5.50;99.90;;;;;;5102174;27;20055;-64
2023/10/23 06:22:02;;;;;;;3.40;3.10;;;5.50;99.90;;;;;;5103225;28;20047;-63
2023/10/23 06:24:28;;;;;;;3.50;3.17;;;5.50;99.90;;;;;;5103072;27;20047;-64
2023/10/23 06:26:53;;;;;;;2.85;2.55;;;5.50;99.90;;;;;;5138473;27;20533;-64
2023/10/23 06:29:19;;;;;;;2.58;1.80;;;5.50;99.90;;;;;;5103506;27;20061;-63
2023/10/23 06:31:45;;;;;;;2.35;2.10;;;5.40;99.90;;;;;;5099569;28;20040;-63
2023/10/23 06:34:11;;;;;;;3.78;2.88;;;5.50;99.90;;;;;;5136817;27;20047;-63
2023/10/23 06:36:40;;;;;;;3.47;3.10;;;5.40;99.90;;;;;;5107191;27;20080;-63
2023/10/23 06:39:05;;;;;;;3.78;3.33;;;5.50;99.90;;;;;;5101670;28;20437;-63
2023/10/23 06:41:32;;;;;;;4.15;3.45;;;5.60;99.90;;;;;;5139109;27;20126;-63
2023/10/23 06:43:57;;;;;;;6.82;3.63;;;5.60;99.90;;;;;;5135845;27;20044;-63
2023/10/23 06:46:23;;;;;;;3.72;3.13;;;5.70;99.90;;;;;;5136438;27;20039;-63
2023/10/23 06:48:49;;;;;;;5.18;3.88;;;5.60;99.90;;;;;;5102583;28;20379;-63
2023/10/23 06:51:14;;;;;;;3.72;2.70;;;5.60;99.90;;;;;;5104749;27;20085;-63
2023/10/23 06:53:40;;;;;;;2.38;2.17;;;5.60;99.90;;;;;;5103462;28;20494;-63
2023/10/23 06:56:08;;;;;;;3.15;2.53;;;5.50;99.90;;;;;;5103301;28;20119;-63
2023/10/23 06:58:33;;;;;;;3.10;2.80;;;5.60;99.90;;;;;;5100494;28;20062;-64
2023/10/23 07:01:07;;;;;;;5.35;3.25;;;5.50;99.90;;;;;;5101630;28;20032;-64
2023/10/23 07:03:33;;;;;;;4.55;3.17;;;5.60;99.90;;;;;;5091396;27;20048;-64
2023/10/23 07:06:02;;;;;;;4.10;3.70;;;5.60;99.90;;;;;;5107676;27;20032;-63
2023/10/23 07:08:28;;;;;;;4.80;3.67;;;5.70;99.90;;;;;;5101904;28;20482;-63
2023/10/23 07:10:53;;;;;;;4.50;4.10;;;5.80;99.90;;;;;;5098385;28;20059;-64
2023/10/23 07:13:19;;;;;;;6.18;4.35;;;5.80;99.90;;;;;;5100169;28;20509;-64
2023/10/23 07:15:45;;;;;;;6.25;4.63;;;5.90;99.90;;;;;;5100870;28;20058;-63
2023/10/23 07:18:10;;;;;;;4.93;4.25;;;6.00;99.90;;;;;;5105468;28;20040;-64
2023/10/23 07:20:36;;;;;;;4.10;3.78;;;6.10;99.90;;;;;;5103010;28;20035;-63
2023/10/23 07:23:02;;;;;;;4.38;3.83;;;6.20;99.90;;;;;;5116290;27;20485;-63
2023/10/23 07:25:28;;;;;;;4.15;3.83;;;6.20;99.90;;;;;;5137342;27;20043;-66
2023/10/23 07:27:54;;;;;;;9.88;4.25;;;6.30;99.90;;;;;;5103909;27;20107;-64
2023/10/23 07:30:22;;;;;;;3.78;3.47;;;6.30;99.90;;;;;;5102878;27;20174;-64
2023/10/23 07:32:48;;;;;;;5.10;4.65;;;6.40;99.90;;;;;;5104554;28;20044;-63
2023/10/23 07:35:14;;;;;;;5.07;4.30;;;6.50;99.90;;;;;;5101803;28;20096;-64
2023/10/23 07:37:39;;;;;;;6.50;4.97;;;6.60;99.90;;;;;;5132990;27;20144;-65
2023/10/23 07:40:06;;;;;;;7.75;4.50;;;6.70;99.90;;;;;;5098956;27;20619;-65
2023/10/23 07:42:32;;;;;;;6.03;5.32;;;6.70;99.90;;;;;;5101064;27;20047;-65
2023/10/23 07:44:58;;;;;;;7.75;6.00;;;6.80;99.90;;;;;;5104005;27;20047;-65
2023/10/23 07:47:24;;;;;;;8.68;6.57;;;6.90;99.90;;;;;;5103556;27;20039;-64
2023/10/23 07:49:50;;;;;;;7.50;6.85;;;7.10;99.90;;;;;;5102732;28;20482;-65
2023/10/23 07:52:15;;;;;;;11.50;8.50;;;7.20;99.90;;;;;;5101117;27;20032;-65
2023/10/23 07:54:41;;;;;;;11.52;8.07;;;7.30;99.90;;;;;;5102109;28;20075;-65
2023/10/23 07:57:06;;;;;;;8.93;8.07;;;7.40;99.90;;;;;;5100411;28;20040;-65
2023/10/23 07:59:32;;;;;;;14.90;9.02;;;7.50;99.90;;;;;;5103043;27;20044;-65
2023/10/23 08:01:58;;;;;;;10.82;9.70;;;7.60;99.90;;;;;;5100502;28;20051;-65
2023/10/23 08:04:24;;;;;;;9.07;8.18;;;7.70;99.90;;;;;;5099876;28;20058;-65
2023/10/23 08:06:49;;;;;;;14.68;10.27;;;7.80;99.90;;;;;;5103099;28;20118;-65
2023/10/23 08:09:15;;;;;;;17.98;10.85;;;7.80;99.90;;;;;;5103297;27;20557;-65
2023/10/23 08:11:41;;;;;;;16.40;10.25;;;7.90;99.90;;;;;;5103421;28;20035;-65
2023/10/23 08:14:07;;;;;;;16.33;10.63;;;8.00;99.90;;;;;;5100360;27;20419;-65
2023/10/23 08:16:32;;;;;;;15.02;10.63;;;8.10;99.90;;;;;;5102242;28;20035;-65
2023/10/23 08:18:58;;;;;;;10.73;9.63;;;8.10;99.90;;;;;;5105558;28;20473;-65
2023/10/23 08:21:26;;;;;;;12.65;9.50;;;8.20;99.90;;;;;;5099562;28;20127;-65
2023/10/23 08:23:56;;;;;;;12.25;10.10;;;8.30;99.90;;;;;;5101856;28;20043;-64
2023/10/23 08:26:22;;;;;;;13.48;10.52;;;8.40;99.90;;;;;;5104628;27;20092;-64
2023/10/23 08:28:48;;;;;;;10.68;9.68;;;8.40;99.90;;;;;;5134833;27;20028;-65
2023/10/23 08:31:14;;;;;;;11.20;10.02;;;8.50;99.90;;;;;;5101155;28;20455;-64
2023/10/23 08:33:40;;;;;;;13.52;10.23;;;8.60;99.90;;;;;;5115739;27;20067;-64
2023/10/23 08:36:05;;;;;;;17.20;12.35;;;8.70;99.90;;;;;;5131450;27;20108;-65
2023/10/23 08:38:31;;;;;;;15.25;10.45;;;8.80;99.90;;;;;;5099500;28;20052;-65
2023/10/23 08:40:57;;;;;;;12.80;10.68;;;8.80;99.90;;;;;;5102205;27;20042;-65
2023/10/23 08:43:23;;;;;;;12.85;11.27;;;8.90;99.90;;;;;;5137446;27;20039;-65
2023/10/23 08:45:53;;;;;;;17.38;10.20;;;8.90;99.90;;;;;;5099365;28;20474;-66
2023/10/23 08:48:19;;;;;;;11.98;10.75;;;9.00;99.90;;;;;;5138290;27;20039;-65
2023/10/23 08:50:46;;;;;;;12.45;11.25;;;9.10;99.90;;;;;;5132164;27;20092;-65
2023/10/23 08:53:14;;;;;;;14.18;10.23;;;9.40;99.90;;;;;;5101035;28;20042;-65
2023/10/23 08:55:42;;;;;;;12.85;11.02;;;9.20;99.90;;;;;;5105477;28;20115;-64
2023/10/23 08:58:13;;;;;;;12.38;11.13;;;9.30;99.90;;;;;;5103751;27;20038;-65
2023/10/23 09:00:38;;;;;;;11.93;10.35;;;9.30;99.90;;;;;;5101463;28;20123;-65
2023/10/23 09:03:05;;;;;;;11.18;10.00;;;9.40;99.90;;;;;;5101975;28;20122;-65
2023/10/23 09:05:30;;;;;;;11.02;10.00;;;9.50;99.90;;;;;;5103926;28;20053;-65
2023/10/23 09:07:57;;;;;;;11.32;10.20;;;9.50;99.90;;;;;;5099977;27;20047;-65
2023/10/23 09:10:22;;;;;;;11.10;9.30;;;9.60;99.90;;;;;;5098538;28;20123;-64
2023/10/23 09:12:56;;;;;;;17.35;15.60;;;9.70;99.90;;;;;;5101032;28;20126;-64
2023/10/23 09:15:23;;;;;;;10.57;9.48;;;9.80;99.90;;;;;;5102858;28;20130;-65
2023/10/23 09:17:51;;;;;;;16.92;9.45;;;9.90;99.90;;;;;;5102731;27;20043;-65
2023/10/23 09:20:26;;;;;;;11.88;9.05;;;9.90;99.90;;;;;;5097914;28;20043;-64
2023/10/23 09:22:52;;;;;;;9.23;8.35;;;10.20;99.90;;;;;;5102825;28;20447;-64
2023/10/23 09:25:24;;;;;;;10.82;8.48;;;10.10;99.90;;;;;;5105962;27;20063;-65
2023/10/23 09:27:51;;;;;;;9.45;8.48;;;10.10;99.90;;;;;;5107541;27;20051;-68
2023/10/23 09:30:27;;;;;;;11.57;9.13;;;10.20;99.90;;;;;;5108703;27;20027;-67
2023/10/23 09:32:53;;;;;;;;;;;10.30;99.90;;;;;;5103663;27;20044;-67
2023/10/23 09:35:21;;;;;;;9.95;8.32;;;10.40;99.90;;;;;;5106801;27;19985;-67
2023/10/23 09:37:47;;;;;;;8.48;7.68;;;10.40;99.90;;;;;;5103073;27;20154;-67
2023/10/23 09:40:13;;;;;;;8.43;7.70;;;10.50;99.90;;;;;;5104839;27;20130;-64
2023/10/23 09:42:40;;;;;;;9.52;7.90;;;10.60;99.90;;;;;;5106520;27;20046;-66
2023/10/23 09:45:07;;;;;;;7.90;7.20;;;10.60;99.90;;;;;;5105016;27;20092;-66
2023/10/23 09:47:34;;;;;;;9.13;7.75;;;10.70;99.90;;;;;;5104755;27;20039;-67
2023/10/23 09:50:01;;;;;;;7.70;7.10;;;11.00;99.90;;;;;;5108736;27;20036;-66
2023/10/23 09:52:27;;;;;;;7.25;6.65;;;10.80;99.90;;;;;;5108559;27;20043;-66
2023/10/23 09:55:01;;;;;;;7.28;6.57;;;10.90;99.90;;;;;;5107887;27;20043;-66
2023/10/23 09:57:37;;;;;;;7.25;6.65;;;10.90;99.90;;;;;;5109247;27;20054;-64
2023/10/23 10:00:13;;;;;;;;;;;10.90;99.90;;;;;;5136420;27;20105;-63
2023/10/23 10:02:48;;;;;;;6.43;5.93;;;11.00;99.90;;;;;;5104355;27;19915;-63
2023/10/23 10:05:21;;;;;;;6.53;5.90;;;11.00;99.90;;;;;;5137541;27;20384;-64
2023/10/23 10:07:58;;;;;;;6.60;6.00;;;11.10;99.90;;;;;;5107051;27;20051;-64
2023/10/23 10:10:25;;;;;;;7.38;6.05;;;11.20;99.90;;;;;;5108087;27;20053;-64
2023/10/23 10:12:52;;;;;;;5.85;5.32;;;11.30;99.90;;;;;;5105314;27;20126;-64
2023/10/23 10:15:18;;;;;;;6.50;5.75;;;11.40;99.90;;;;;;5137750;27;20036;-65
2023/10/23 10:17:44;;;;;;;6.60;5.30;;;11.40;99.90;;;;;;5108169;27;20067;-65
2023/10/23 10:20:10;;;;;;;5.88;5.38;;;11.50;99.90;;;;;;5107129;27;20035;-65
2023/10/23 10:22:39;;;;;;;5.90;5.13;;;11.50;99.90;;;;;;5104737;27;20035;-65
2023/10/23 10:25:07;;;;;;;5.53;5.03;;;11.70;99.90;;;;;;5103954;27;20051;-65
2023/10/23 10:27:34;;;;;;;6.28;5.68;;;11.70;99.90;;;;;;5124289;27;20047;-65
2023/10/23 10:30:04;;;;;;;6.40;5.85;;;11.80;99.90;;;;;;5100789;28;20039;-65
2023/10/23 10:32:31;;;;;;;6.57;5.90;;;11.90;99.90;;;;;;5102521;27;20433;-65
2023/10/23 10:35:03;;;;;;;6.05;5.30;;;12.00;99.90;;;;;;5106499;27;20097;-64
2023/10/23 10:37:30;;;;;;;6.40;5.88;;;12.00;99.90;;;;;;5103700;27;20549;-65
2023/10/23 10:39:56;;;;;;;6.53;5.97;;;12.00;99.90;;;;;;5103247;28;20126;-65
2023/10/23 10:42:23;;;;;;;7.53;6.32;;;12.10;99.90;;;;;;5137121;27;20437;-65
2023/10/23 10:44:55;;;;;;;7.22;6.28;;;11.90;99.90;;;;;;5135500;27;20043;-65
2023/10/23 10:47:36;;;;;;;8.43;7.60;;;11.90;99.90;;;;;;5105591;28;20043;-65
2023/10/23 10:50:03;;;;;;;8.43;7.68;;;11.90;99.90;;;;;;5108242;27;20032;-65
2023/10/23 10:52:32;;;;;;;9.13;8.20;;;11.80;99.90;;;;;;5100930;27;20075;-65
2023/10/23 10:55:04;;;;;;;8.45;7.75;;;11.70;99.90;;;;;;5105610;27;20041;-65
2023/10/23 10:57:31;;;;;;;8.95;8.15;;;11.60;99.90;;;;;;5103857;27;20039;-65
2023/10/23 11:00:00;;;;;;;8.93;8.02;;;11.50;99.90;;;;;;5102501;27;20051;-65
2023/10/23 11:02:26;;;;;;;9.48;8.65;;;11.40;99.90;;;;;;5107608;27;20143;-64
2023/10/23 11:04:52;;;;;;;10.35;9.35;;;11.30;99.90;;;;;;5108316;27;20124;-65
2023/10/23 11:07:26;;;;;;;9.77;8.88;;;11.30;99.90;;;;;;5109932;27;20358;-65
2023/10/23 11:09:52;;;;;;;11.10;10.00;;;11.30;99.90;;;;;;5106157;28;20024;-65
2023/10/23 11:12:18;;;;;;;13.02;10.85;;;11.30;99.90;;;;;;5107340;27;20042;-65
2023/10/23 11:14:45;;;;;;;11.73;10.70;;;11.20;99.90;;;;;;5107376;27;20124;-65
2023/10/23 11:17:12;;;;;;;12.93;11.55;;;11.20;99.90;;;;;;5133418;27;20320;-65
2023/10/23 11:19:39;;;;;;;13.13;11.88;;;11.10;99.90;;;;;;5134430;27;20043;-65
2023/10/23 11:22:09;;;;;;;13.13;11.82;;;11.20;99.90;;;;;;5109621;27;20047;-65
2023/10/23 11:24:34;;;;;;;14.50;13.00;;;11.10;99.90;;;;;;5121022;27;20039;-65
2023/10/23 11:27:00;;;;;;;15.38;13.65;;;11.00;99.90;;;;;;5108243;28;20058;-65
2023/10/23 11:29:26;;;;;;;14.75;13.25;;;11.00;99.90;;;;;;5105057;27;20032;-65
2023/10/23 11:31:52;;;;;;;15.13;13.52;;;11.10;99.90;;;;;;5109744;27;20031;-65
2023/10/23 11:34:18;;;;;;;17.08;14.45;;;11.10;99.90;;;;;;5093053;27;20413;-64
2023/10/23 11:36:46;;;;;;;15.93;14.32;;;11.00;99.90;;;;;;5104269;27;20043;-65
2023/10/23 11:39:13;;;;;;;16.02;14.43;;;11.00;99.90;;;;;;5102929;27;20039;-65
2023/10/23 11:41:39;;;;;;;15.85;14.25;;;10.90;99.90;;;;;;5100313;28;20043;-64
2023/10/23 11:44:05;;;;;;;17.58;15.63;;;10.90;99.90;;;;;;5107584;27;20067;-65
2023/10/23 11:46:33;;;;;;;16.73;15.10;;;10.90;99.90;;;;;;5104513;28;20074;-64
2023/10/23 11:49:00;;;;;;;17.80;15.63;;;10.90;99.90;;;;;;5106856;27;20071;-65
2023/10/23 11:51:27;;;;;;;18.08;16.13;;;11.00;99.90;;;;;;5133841;27;20035;-65
2023/10/23 11:53:53;;;;;;;17.85;15.65;;;10.90;99.90;;;;;;5131978;27;20431;-65
2023/10/23 11:56:19;;;;;;;16.58;14.98;;;10.90;99.90;;;;;;5136463;27;20043;-64
2023/10/23 11:58:45;;;;;;;17.58;15.77;;;11.00;99.90;;;;;;5101796;27;20138;-65
2023/10/23 12:01:11;;;;;;;20.13;16.20;;;11.00;99.90;;;;;;5106119;27;20497;-64
2023/10/23 12:03:37;;;;;;;19.25;14.90;;;11.00;99.90;;;;;;5138436;27;20097;-64
2023/10/23 12:06:03;;;;;;;16.50;14.32;;;11.20;99.90;;;;;;5106317;27;20062;-64
2023/10/23 12:08:29;;;;;;;16.25;13.95;;;11.20;99.90;;;;;;5104328;27;20460;-65
2023/10/23 12:10:54;;;;;;;17.60;13.93;;;11.20;99.90;;;;;;5136329;27;20139;-65
2023/10/23 12:13:20;;;;;;;15.07;13.60;;;11.20;99.90;;;;;;5110728;27;20126;-65
2023/10/23 12:15:46;;;;;;;14.32;12.82;;;11.30;99.90;;;;;;5100708;27;20482;-65
2023/10/23 12:18:11;;;;;;;16.92;13.32;;;11.30;99.90;;;;;;5105655;28;20034;-65
2023/10/23 12:20:37;;;;;;;17.10;13.30;;;11.40;99.90;;;;;;5135463;27;20038;-65
2023/10/23 12:23:03;;;;;;;14.43;13.02;;;11.40;99.90;;;;;;5098954;27;20460;-65
2023/10/23 12:25:29;;;;;;;17.88;16.00;;;11.50;99.90;;;;;;5095735;28;20054;-64
2023/10/23 12:27:55;;;;;;;17.92;16.02;;;11.50;99.90;;;;;;5096014;28;20183;-65
2023/10/23 12:30:20;;;;;;;16.30;14.23;;;11.60;99.90;;;;;;5095478;28;20128;-64
2023/10/23 12:32:46;;;;;;;14.82;13.35;;;11.50;99.90;;;;;;5094059;28;20043;-65
2023/10/23 12:35:13;;;;;;;13.98;12.57;;;11.50;99.90;;;;;;5101743;28;20055;-65
2023/10/23 12:37:39;;;;;;;14.13;12.73;;;11.50;99.90;;;;;;5099008;27;20502;-65
2023/10/23 12:40:09;;;;;;;14.90;12.98;;;11.40;99.90;;;;;;5101751;28;20477;-65
2023/10/23 12:42:35;;;;;;;14.80;13.30;;;11.50;99.90;;;;;;5097719;28;20078;-65
2023/10/23 12:45:01;;;;;;;16.17;14.48;;;11.50;99.90;;;;;;5100291;28;20047;-65
2023/10/23 12:47:26;;;;;;;16.27;14.40;;;11.50;99.90;;;;;;5101662;27;20043;-65